createdAt,value
2022-10-11T00:00:47.453Z,19.10
2022-10-11T00:02:49.136Z,19.10
2022-10-11T00:04:50.861Z,19.10
2022-10-11T00:06:52.486Z,19.10
2022-10-11T00:08:54.100Z,19.10
2022-10-11T00:10:59.566Z,19.00
2022-10-11T00:13:01.269Z,19.00
2022-10-11T00:15:03.908Z,19.10
2022-10-11T00:17:07.805Z,19.10
2022-10-11T00:19:09.458Z,19.10
2022-10-11T00:21:12.988Z,19.10
2022-10-11T00:23:15.037Z,19.10
2022-10-11T00:25:17.167Z,19.10
2022-10-11T00:27:19.060Z,19.10
2022-10-11T00:29:20.710Z,19.10
2022-10-11T00:31:22.326Z,19.00
2022-10-11T00:33:23.954Z,19.00
2022-10-11T00:35:26.100Z,19.00
2022-10-11T00:37:27.738Z,19.00
2022-10-11T00:39:29.361Z,19.00
2022-10-11T00:41:31.579Z,19.00
2022-10-11T00:43:33.550Z,19.00
2022-10-11T00:45:35.153Z,19.00
2022-10-11T00:47:36.770Z,19.00
2022-10-11T00:49:41.049Z,18.90
2022-10-11T00:51:45.709Z,19.00
2022-10-11T00:53:48.962Z,19.00
2022-10-11T00:55:55.754Z,19.00
2022-10-11T00:57:58.730Z,19.00
2022-10-11T01:00:00.672Z,19.00
2022-10-11T01:02:02.822Z,19.00
2022-10-11T01:04:04.946Z,19.00
2022-10-11T01:06:07.274Z,19.00
2022-10-11T01:08:09.203Z,18.90
2022-10-11T01:10:10.853Z,18.90
2022-10-11T01:12:17.399Z,18.90
2022-10-11T01:14:28.378Z,18.90
2022-10-11T01:16:29.949Z,18.90
2022-10-11T01:18:40.318Z,18.90
2022-10-11T01:20:57.219Z,18.80
2022-10-11T01:22:58.856Z,18.80
2022-10-11T01:25:06.571Z,18.80
2022-10-11T01:27:28.416Z,18.80
2022-10-11T01:29:30.028Z,18.80
2022-10-11T01:31:38.376Z,18.80
2022-10-11T01:33:43.169Z,18.70
2022-10-11T01:35:44.778Z,18.70
2022-10-11T01:37:48.407Z,18.70
2022-10-11T01:39:53.800Z,18.70
2022-10-11T01:41:57.304Z,18.70
2022-10-11T01:44:01.043Z,18.70
2022-10-11T01:46:04.134Z,18.70
2022-10-11T01:48:08.404Z,18.70
2022-10-11T01:50:28.386Z,18.60
2022-10-11T01:52:32.149Z,18.60
2022-10-11T01:55:08.030Z,18.60
2022-10-11T01:57:14.429Z,18.60
2022-10-11T01:59:22.085Z,18.60
2022-10-11T02:01:33.021Z,18.60
2022-10-11T02:03:48.706Z,18.60
2022-10-11T02:05:53.101Z,18.60
2022-10-11T02:08:05.450Z,18.50
2022-10-11T02:10:11.976Z,18.50
2022-10-11T02:12:17.779Z,18.50
2022-10-11T02:14:22.026Z,18.50
2022-10-11T02:16:33.121Z,18.50
2022-10-11T02:18:37.808Z,18.50
2022-10-11T02:20:40.954Z,18.50
2022-10-11T02:22:44.996Z,18.50
2022-10-11T02:24:49.496Z,18.50
2022-10-11T02:26:54.113Z,18.50
2022-10-11T02:28:57.629Z,18.50
2022-10-11T02:31:00.568Z,18.50
2022-10-11T02:33:03.574Z,18.50
2022-10-11T02:35:05.618Z,18.50
2022-10-11T02:37:07.249Z,18.50
2022-10-11T02:39:30.022Z,18.50
2022-10-11T02:41:34.089Z,18.50
2022-10-11T02:43:41.551Z,18.50
2022-10-11T02:45:48.787Z,18.50
2022-10-11T02:47:50.667Z,18.50
2022-10-11T02:49:52.490Z,18.40
2022-10-11T02:51:57.174Z,18.40
2022-10-11T02:53:59.280Z,18.40
2022-10-11T02:56:00.980Z,18.40
2022-10-11T02:58:03.117Z,18.40
2022-10-11T03:00:05.232Z,18.50
2022-10-11T03:02:06.997Z,18.30
2022-10-11T03:04:08.716Z,18.40
2022-10-11T03:06:10.324Z,18.40
2022-10-11T03:08:12.862Z,18.40
2022-10-11T03:10:14.622Z,18.40
2022-10-11T03:12:16.269Z,18.40
2022-10-11T03:14:17.873Z,18.30
2022-10-11T03:16:19.521Z,18.30
2022-10-11T03:18:21.257Z,18.30
2022-10-11T03:20:23.177Z,18.20
2022-10-11T03:22:24.793Z,18.30
2022-10-11T03:24:26.681Z,18.30
2022-10-11T03:26:28.359Z,18.30
2022-10-11T03:28:30.128Z,18.30
2022-10-11T03:30:32.148Z,18.20
2022-10-11T03:32:33.775Z,18.30
2022-10-11T03:34:35.456Z,18.30
2022-10-11T03:36:37.176Z,18.30
2022-10-11T03:38:38.811Z,18.30
2022-10-11T03:40:41.071Z,18.30
2022-10-11T03:42:42.712Z,18.20
2022-10-11T03:44:44.357Z,18.20
2022-10-11T03:46:45.983Z,18.30
2022-10-11T03:48:47.627Z,18.30
2022-10-11T03:50:49.498Z,18.20
2022-10-11T03:52:51.126Z,18.20
2022-10-11T03:54:52.754Z,18.20
2022-10-11T03:56:54.435Z,18.20
2022-10-11T03:58:56.059Z,18.20
2022-10-11T04:00:57.679Z,18.10
2022-10-11T04:02:59.319Z,18.20
2022-10-11T04:05:01.781Z,18.20
2022-10-11T04:07:03.472Z,18.20
2022-10-11T04:09:05.110Z,18.10
2022-10-11T04:11:06.868Z,18.10
2022-10-11T04:13:09.900Z,18.10
2022-10-11T04:15:13.322Z,18.10
2022-10-11T04:17:14.971Z,18.10
2022-10-11T04:19:16.590Z,18.10
2022-10-11T04:21:18.205Z,18.10
2022-10-11T04:23:19.883Z,18.10
2022-10-11T04:25:21.524Z,18.20
2022-10-11T04:27:23.155Z,18.10
2022-10-11T04:29:27.729Z,18.10
2022-10-11T04:31:33.164Z,18.10
2022-10-11T04:33:34.806Z,18.10
2022-10-11T04:35:36.449Z,18.10
2022-10-11T04:37:38.205Z,18.10
2022-10-11T04:39:39.859Z,18.00
2022-10-11T04:41:41.519Z,18.00
2022-10-11T04:43:43.168Z,18.00
2022-10-11T04:45:44.867Z,18.00
2022-10-11T04:47:47.352Z,18.00
2022-10-11T04:49:48.955Z,17.90
2022-10-11T04:51:50.662Z,17.90
2022-10-11T04:53:52.362Z,17.90
2022-10-11T04:56:01.209Z,17.90
2022-10-11T04:58:03.125Z,17.80
2022-10-11T05:00:05.209Z,17.80
2022-10-11T05:02:06.903Z,17.80
2022-10-11T05:04:08.616Z,17.80
2022-10-11T05:06:10.663Z,17.70
2022-10-11T05:08:12.596Z,17.70
2022-10-11T05:10:14.895Z,17.60
2022-10-11T05:12:16.493Z,17.60
2022-10-11T05:14:18.208Z,17.60
2022-10-11T05:16:19.910Z,17.60
2022-10-11T05:18:21.536Z,17.60
2022-10-11T05:20:23.190Z,17.60
2022-10-11T05:22:24.823Z,17.60
2022-10-11T05:24:26.445Z,17.60
2022-10-11T05:26:28.602Z,17.50
2022-10-11T05:28:30.289Z,17.50
2022-10-11T05:30:31.984Z,17.50
2022-10-11T05:32:33.632Z,17.50
2022-10-11T05:34:35.259Z,17.50
2022-10-11T05:36:36.930Z,17.50
2022-10-11T05:38:39.117Z,17.50
2022-10-11T05:40:40.732Z,17.50
2022-10-11T05:42:42.587Z,17.40
2022-10-11T05:44:44.192Z,17.50
2022-10-11T05:46:45.821Z,17.40
2022-10-11T05:48:47.468Z,17.40
2022-10-11T05:50:50.079Z,17.50
2022-10-11T05:52:51.754Z,17.50
2022-10-11T05:54:53.439Z,17.40
2022-10-11T05:56:55.070Z,17.40
2022-10-11T05:59:01.454Z,17.40
2022-10-11T06:01:04.134Z,17.40
2022-10-11T06:03:06.694Z,17.40
2022-10-11T06:05:08.667Z,17.40
2022-10-11T06:07:10.363Z,17.40
2022-10-11T06:09:12.633Z,17.40
2022-10-11T06:11:18.034Z,17.40
2022-10-11T06:13:19.673Z,17.40
2022-10-11T06:15:21.338Z,17.40
2022-10-11T06:17:23.787Z,17.40
2022-10-11T06:19:25.425Z,17.40
2022-10-11T06:21:27.097Z,17.40
2022-10-11T06:23:28.813Z,17.40
2022-10-11T06:25:30.452Z,17.40
2022-10-11T06:27:32.309Z,17.40
2022-10-11T06:29:34.447Z,17.40
2022-10-11T06:31:36.082Z,17.40
2022-10-11T06:33:38.214Z,17.40
2022-10-11T06:35:39.844Z,17.40
2022-10-11T06:37:41.449Z,17.40
2022-10-11T06:39:43.194Z,17.40
2022-10-11T06:41:44.863Z,17.40
2022-10-11T06:43:46.504Z,17.40
2022-10-11T06:45:48.321Z,17.40
2022-10-11T06:47:49.947Z,17.40
2022-10-11T06:49:51.611Z,17.30
2022-10-11T06:51:53.265Z,17.30
2022-10-11T06:53:56.707Z,17.40
2022-10-11T06:56:02.685Z,17.30
2022-10-11T06:58:04.554Z,17.40
2022-10-11T07:00:10.321Z,17.40
2022-10-11T07:02:14.220Z,17.30
2022-10-11T07:04:15.857Z,17.30
2022-10-11T07:06:18.997Z,17.30
2022-10-11T07:08:20.642Z,17.40
2022-10-11T07:10:22.385Z,17.40
2022-10-11T07:12:24.251Z,17.40
2022-10-11T07:14:25.946Z,17.40
2022-10-11T07:16:28.236Z,17.40
2022-10-11T07:18:29.897Z,17.40
2022-10-11T07:20:31.569Z,17.40
2022-10-11T07:22:33.318Z,17.40
2022-10-11T07:24:34.969Z,17.40
2022-10-11T07:26:38.786Z,17.40
2022-10-11T07:28:41.089Z,17.40
2022-10-11T07:30:43.143Z,17.50
2022-10-11T07:32:44.788Z,17.50
2022-10-11T07:34:46.492Z,17.50
2022-10-11T07:36:48.371Z,17.50
2022-10-11T07:38:50.353Z,17.50
2022-10-11T07:40:52.105Z,17.50
2022-10-11T07:42:53.802Z,17.50
2022-10-11T07:44:55.565Z,17.50
2022-10-11T07:46:57.221Z,17.50
2022-10-11T07:48:59.134Z,17.50
2022-10-11T07:51:08.504Z,17.50
2022-10-11T07:53:10.141Z,17.50
2022-10-11T07:55:11.823Z,17.50
2022-10-11T07:57:14.951Z,17.50
2022-10-11T07:59:16.603Z,17.60
2022-10-11T08:01:18.740Z,17.60
2022-10-11T08:03:20.453Z,17.60
2022-10-11T08:05:22.120Z,17.60
2022-10-11T08:07:23.755Z,17.60
2022-10-11T08:09:25.435Z,17.60
2022-10-11T08:11:28.718Z,17.60
2022-10-11T08:13:30.471Z,17.60
2022-10-11T08:15:32.620Z,17.60
2022-10-11T08:17:34.290Z,17.60
2022-10-11T08:19:35.982Z,17.60
2022-10-11T08:21:37.791Z,17.60
2022-10-11T08:23:39.842Z,17.60
2022-10-11T08:25:42.625Z,17.70
2022-10-11T08:27:44.286Z,17.70
2022-10-11T08:29:45.931Z,17.70
2022-10-11T08:31:47.656Z,17.70
2022-10-11T08:33:49.451Z,17.70
2022-10-11T08:35:52.247Z,17.70
2022-10-11T08:37:53.973Z,17.70
2022-10-11T08:39:55.781Z,17.80
2022-10-11T08:42:06.675Z,17.70
2022-10-11T08:44:20.813Z,17.80
2022-10-11T08:46:23.557Z,17.90
2022-10-11T08:48:31.357Z,17.80
2022-10-11T08:50:33.058Z,17.80
2022-10-11T08:52:37.657Z,17.80
2022-10-11T08:54:43.153Z,17.80
2022-10-11T08:56:44.910Z,17.90
2022-10-11T08:58:46.687Z,17.90
2022-10-11T09:00:50.051Z,17.90
2022-10-11T09:03:13.427Z,17.90
2022-10-11T09:05:16.493Z,17.90
2022-10-11T09:07:36.765Z,17.90
2022-10-11T09:09:50.689Z,17.90
2022-10-11T09:12:05.476Z,18.00
2022-10-11T09:14:16.998Z,18.00
2022-10-11T09:16:24.330Z,18.00
2022-10-11T09:18:35.433Z,18.00
2022-10-11T09:20:37.074Z,18.10
2022-10-11T09:22:57.182Z,18.10
2022-10-11T09:25:03.320Z,18.10
2022-10-11T09:27:49.904Z,18.10
2022-10-11T09:29:57.245Z,18.10
2022-10-11T09:31:58.998Z,18.10
2022-10-11T09:34:06.337Z,18.10
2022-10-11T09:36:20.113Z,18.10
2022-10-11T09:38:27.790Z,18.00
2022-10-11T09:40:32.170Z,18.00
2022-10-11T09:42:33.903Z,18.00
2022-10-11T09:44:39.976Z,18.00
2022-10-11T09:46:42.247Z,18.00
2022-10-11T09:48:44.662Z,17.90
2022-10-11T09:50:46.643Z,18.00
2022-10-11T09:52:56.285Z,18.00
2022-10-11T09:54:59.902Z,18.00
2022-10-11T09:57:01.705Z,18.00
2022-10-11T09:59:26.663Z,18.00
2022-10-11T10:01:29.876Z,18.00
2022-10-11T10:03:33.921Z,18.00
2022-10-11T10:05:37.477Z,18.10
2022-10-11T10:07:40.927Z,18.10
2022-10-11T10:09:42.610Z,18.10
2022-10-11T10:11:44.335Z,18.10
2022-10-11T10:13:51.682Z,18.10
2022-10-11T10:15:55.498Z,18.20
2022-10-11T10:17:57.931Z,18.20
2022-10-11T10:20:00.511Z,18.30
2022-10-11T10:22:02.173Z,18.30
2022-10-11T10:24:27.015Z,18.30
2022-10-11T10:26:28.911Z,18.50
2022-10-11T10:28:30.940Z,18.50
2022-10-11T10:30:35.580Z,18.60
2022-10-11T10:32:37.618Z,18.70
2022-10-11T10:34:59.529Z,18.80
2022-10-11T10:37:06.360Z,18.90
2022-10-11T10:39:17.270Z,19.00
2022-10-11T10:41:19.081Z,19.10
2022-10-11T10:43:29.042Z,19.20
2022-10-11T10:45:36.413Z,19.20
2022-10-11T10:47:53.111Z,19.30
2022-10-11T10:49:55.307Z,19.40
2022-10-11T10:52:13.018Z,19.50
2022-10-11T10:54:25.363Z,19.60
2022-10-11T10:56:34.461Z,19.70
2022-10-11T10:58:46.680Z,19.70
2022-10-11T11:00:49.569Z,19.80
2022-10-11T11:03:00.735Z,19.90
2022-10-11T11:05:13.654Z,20.00
2022-10-11T11:07:30.180Z,20.00
2022-10-11T11:09:54.312Z,20.10
2022-10-11T11:12:02.755Z,20.20
2022-10-11T11:14:22.908Z,20.30
2022-10-11T11:16:27.652Z,20.30
2022-10-11T11:18:37.389Z,20.40
2022-10-11T11:20:45.202Z,20.40
2022-10-11T11:22:46.928Z,20.50
2022-10-11T11:24:57.717Z,20.60
2022-10-11T11:27:14.626Z,20.60
2022-10-11T11:29:28.865Z,20.70
2022-10-11T11:31:46.572Z,20.70
2022-10-11T11:34:05.086Z,20.80
2022-10-11T11:36:11.058Z,20.90
2022-10-11T11:38:29.737Z,20.90
2022-10-11T11:40:35.406Z,20.90
2022-10-11T11:42:41.128Z,20.90
2022-10-11T11:44:44.741Z,21.00
2022-10-11T11:47:01.039Z,21.00
2022-10-11T11:49:08.535Z,21.00
2022-10-11T11:51:15.180Z,21.10
2022-10-11T11:53:19.341Z,21.10
2022-10-11T11:55:31.898Z,21.10
2022-10-11T11:57:48.801Z,21.10
2022-10-11T11:59:55.765Z,21.10
2022-10-11T12:02:06.807Z,21.10
2022-10-11T12:04:15.870Z,21.10
2022-10-11T12:06:20.529Z,21.10
2022-10-11T12:08:27.285Z,21.10
2022-10-11T12:10:31.963Z,21.10
2022-10-11T12:12:36.074Z,21.10
2022-10-11T12:14:39.722Z,21.10
2022-10-11T12:17:00.229Z,21.10
2022-10-11T12:19:02.936Z,21.10
2022-10-11T12:21:16.919Z,21.10
2022-10-11T12:23:20.054Z,21.00
2022-10-11T12:25:21.952Z,21.00
2022-10-11T12:27:38.114Z,21.00
2022-10-11T12:29:47.703Z,21.00
2022-10-11T12:31:50.695Z,21.10
2022-10-11T12:34:14.074Z,21.10
2022-10-11T12:36:27.696Z,21.10
2022-10-11T12:38:31.128Z,21.20
2022-10-11T12:40:35.275Z,21.30
2022-10-11T12:42:36.978Z,21.30
2022-10-11T12:44:38.660Z,21.30
2022-10-11T12:46:40.373Z,21.40
2022-10-11T12:48:50.134Z,21.50
2022-10-11T12:51:10.074Z,21.50
2022-10-11T12:53:17.566Z,21.50
2022-10-11T12:55:37.574Z,21.60
2022-10-11T12:57:46.610Z,21.60
2022-10-11T12:59:49.154Z,21.60
2022-10-11T13:01:52.381Z,21.60
2022-10-11T13:03:59.925Z,21.60
2022-10-11T13:06:12.283Z,21.70
2022-10-11T13:08:18.576Z,21.60
2022-10-11T13:10:24.425Z,21.70
2022-10-11T13:12:26.708Z,21.70
2022-10-11T13:14:32.088Z,21.70
2022-10-11T13:16:48.244Z,21.70
2022-10-11T13:18:50.923Z,21.70
2022-10-11T13:20:52.890Z,21.70
2022-10-11T13:22:58.097Z,21.70
2022-10-11T13:24:59.743Z,21.70
2022-10-11T13:27:02.465Z,21.70
2022-10-11T13:29:11.051Z,21.70
2022-10-11T13:31:12.694Z,21.70
2022-10-11T13:33:23.567Z,21.80
2022-10-11T13:35:30.423Z,21.70
2022-10-11T13:37:40.526Z,21.70
2022-10-11T13:39:42.243Z,21.70
2022-10-11T13:41:43.910Z,21.80
2022-10-11T13:43:45.840Z,21.80
2022-10-11T13:45:47.657Z,21.80
2022-10-11T13:47:50.314Z,21.80
2022-10-11T13:50:11.023Z,21.90
2022-10-11T13:52:19.205Z,21.90
2022-10-11T13:54:20.924Z,21.90
2022-10-11T13:56:22.698Z,22.00
2022-10-11T13:58:28.252Z,22.00
2022-10-11T14:00:52.893Z,22.00
2022-10-11T14:02:59.967Z,21.90
2022-10-11T14:05:01.859Z,22.00
2022-10-11T14:07:03.763Z,22.00
2022-10-11T14:09:05.477Z,22.00
2022-10-11T14:11:08.169Z,21.90
2022-10-11T14:13:23.206Z,21.90
2022-10-11T14:15:32.976Z,21.90
2022-10-11T14:17:42.323Z,21.80
2022-10-11T14:19:45.288Z,21.90
2022-10-11T14:21:49.161Z,21.90
2022-10-11T14:23:55.219Z,21.90
2022-10-11T14:25:56.882Z,21.90
2022-10-11T14:27:59.236Z,21.90
2022-10-11T14:30:30.198Z,21.90
2022-10-11T14:32:33.159Z,22.00
2022-10-11T14:34:35.272Z,21.80
2022-10-11T14:36:36.927Z,21.80
2022-10-11T14:38:38.614Z,21.80
2022-10-11T14:40:43.208Z,21.80
2022-10-11T14:42:47.637Z,21.80
2022-10-11T14:44:49.333Z,21.80
2022-10-11T14:46:54.344Z,21.80
2022-10-11T14:48:56.898Z,21.80
2022-10-11T14:50:59.910Z,21.80
2022-10-11T14:53:01.649Z,21.80
2022-10-11T14:55:03.375Z,21.90
2022-10-11T14:57:05.088Z,21.90
2022-10-11T14:59:06.811Z,21.90
2022-10-11T15:01:15.633Z,21.90
2022-10-11T15:03:17.327Z,21.90
2022-10-11T15:05:19.696Z,21.90
2022-10-11T15:07:21.352Z,21.90
2022-10-11T15:09:23.348Z,21.90
2022-10-11T15:11:25.304Z,21.90
2022-10-11T15:13:27.006Z,21.80
2022-10-11T15:15:30.568Z,21.80
2022-10-11T15:17:32.235Z,21.80
2022-10-11T15:19:33.927Z,21.70
2022-10-11T15:21:35.840Z,21.70
2022-10-11T15:23:37.529Z,21.60
2022-10-11T15:25:40.344Z,21.60
2022-10-11T15:27:42.396Z,21.60
2022-10-11T15:29:44.307Z,21.60
2022-10-11T15:31:46.492Z,21.50
2022-10-11T15:33:48.476Z,21.50
2022-10-11T15:35:50.258Z,21.40
2022-10-11T15:37:52.585Z,21.40
2022-10-11T15:39:54.305Z,21.40
2022-10-11T15:41:57.069Z,21.30
2022-10-11T15:43:58.786Z,21.30
2022-10-11T15:46:01.787Z,21.20
2022-10-11T15:48:03.651Z,21.20
2022-10-11T15:50:34.143Z,21.10
2022-10-11T15:52:35.800Z,21.10
2022-10-11T15:54:37.804Z,21.00
2022-10-11T15:56:39.814Z,21.00
2022-10-11T15:58:41.890Z,20.90
2022-10-11T16:00:44.918Z,20.90
2022-10-11T16:02:46.557Z,20.80
2022-10-11T16:04:48.212Z,20.80
2022-10-11T16:06:49.887Z,20.70
2022-10-11T16:08:51.537Z,20.70
2022-10-11T16:10:53.456Z,20.60
2022-10-11T16:12:55.904Z,20.60
2022-10-11T16:14:57.739Z,20.50
2022-10-11T16:17:02.024Z,20.50
2022-10-11T16:19:03.744Z,20.40
2022-10-11T16:21:10.226Z,20.40
2022-10-11T16:23:13.120Z,20.30
2022-10-11T16:25:14.849Z,20.30
2022-10-11T16:27:18.859Z,20.30
2022-10-11T16:29:22.003Z,20.20
2022-10-11T16:31:23.771Z,20.20
2022-10-11T16:33:25.536Z,20.20
2022-10-11T16:35:32.257Z,20.10
2022-10-11T16:37:34.946Z,20.00
2022-10-11T16:39:36.588Z,20.00
2022-10-11T16:41:38.551Z,20.00
2022-10-11T16:43:40.304Z,19.90
2022-10-11T16:45:41.965Z,20.00
2022-10-11T16:47:43.955Z,19.90
2022-10-11T16:49:45.945Z,19.80
2022-10-11T16:51:47.767Z,19.80
2022-10-11T16:53:49.724Z,19.70
2022-10-11T16:55:51.469Z,19.70
2022-10-11T16:57:53.127Z,19.70
2022-10-11T16:59:54.863Z,19.60
2022-10-11T17:01:57.749Z,19.50
2022-10-11T17:03:59.846Z,19.50
2022-10-11T17:06:01.709Z,19.50
2022-10-11T17:08:03.437Z,19.40
2022-10-11T17:10:05.502Z,19.40
2022-10-11T17:12:12.937Z,19.30
2022-10-11T17:14:14.755Z,19.30
2022-10-11T17:16:16.877Z,19.30
2022-10-11T17:18:18.667Z,19.20
2022-10-11T17:20:20.301Z,19.20
2022-10-11T17:22:22.154Z,19.20
2022-10-11T17:24:23.904Z,19.00
2022-10-11T17:26:26.527Z,19.10
2022-10-11T17:28:28.323Z,19.10
2022-10-11T17:30:30.028Z,19.00
2022-10-11T17:32:31.792Z,19.00
2022-10-11T17:34:33.633Z,19.00
2022-10-11T17:36:35.471Z,19.00
2022-10-11T17:38:37.181Z,19.00
2022-10-11T17:40:38.923Z,18.90
2022-10-11T17:42:40.591Z,18.90
2022-10-11T17:44:42.302Z,18.80
2022-10-11T17:46:44.322Z,18.80
2022-10-11T17:48:46.047Z,18.80
2022-10-11T17:50:50.602Z,18.70
2022-10-11T17:52:53.775Z,18.80
2022-10-11T17:54:55.595Z,18.70
2022-10-11T17:56:57.305Z,18.70
2022-10-11T17:58:59.298Z,18.60
2022-10-11T18:01:05.843Z,18.70
2022-10-11T18:03:07.988Z,18.60
2022-10-11T18:05:09.817Z,18.60
2022-10-11T18:07:11.510Z,18.50
2022-10-11T18:09:14.343Z,18.50
2022-10-11T18:11:18.145Z,18.50
2022-10-11T18:13:19.921Z,18.50
2022-10-11T18:15:21.722Z,18.40
2022-10-11T18:17:23.392Z,18.30
2022-10-11T18:19:25.041Z,18.30
2022-10-11T18:21:31.365Z,18.30
2022-10-11T18:23:38.900Z,18.20
2022-10-11T18:25:40.578Z,18.20
2022-10-11T18:27:45.479Z,18.20
2022-10-11T18:29:47.189Z,18.10
2022-10-11T18:31:48.960Z,18.20
2022-10-11T18:33:51.127Z,18.10
2022-10-11T18:35:59.775Z,18.10
2022-10-11T18:38:01.608Z,18.10
2022-10-11T18:40:03.753Z,18.00
2022-10-11T18:42:05.617Z,18.00
2022-10-11T18:44:08.894Z,18.00
2022-10-11T18:46:13.725Z,18.00
2022-10-11T18:48:15.484Z,18.00
2022-10-11T18:50:17.889Z,17.90
2022-10-11T18:52:19.648Z,17.90
2022-10-11T18:54:21.603Z,17.90
2022-10-11T18:56:26.783Z,17.90
2022-10-11T18:58:32.905Z,17.90
2022-10-11T19:00:42.664Z,17.90
2022-10-11T19:02:44.471Z,17.90
2022-10-11T19:04:52.379Z,17.90
2022-10-11T19:06:54.223Z,17.80
2022-10-11T19:09:00.457Z,17.80
2022-10-11T19:11:08.674Z,17.80
2022-10-11T19:13:10.444Z,17.80
2022-10-11T19:15:12.291Z,17.80
2022-10-11T19:17:22.901Z,17.70
2022-10-11T19:19:34.378Z,17.70
2022-10-11T19:21:42.940Z,17.70
2022-10-11T19:23:57.317Z,17.70
2022-10-11T19:26:03.365Z,17.60
2022-10-11T19:28:15.728Z,17.70
2022-10-11T19:30:30.488Z,17.60
2022-10-11T19:32:40.020Z,17.60
2022-10-11T19:34:43.486Z,17.60
2022-10-11T19:36:51.194Z,17.60
2022-10-11T19:38:57.338Z,17.60
2022-10-11T19:41:10.894Z,17.50
2022-10-11T19:43:19.786Z,17.60
2022-10-11T19:45:36.355Z,17.50
2022-10-11T19:47:52.959Z,17.50
2022-10-11T19:49:57.142Z,17.50
2022-10-11T19:52:03.400Z,17.50
2022-10-11T19:54:07.186Z,17.50
2022-10-11T19:56:12.601Z,17.40
2022-10-11T19:58:15.868Z,17.40
2022-10-11T20:00:20.500Z,17.40
2022-10-11T20:02:27.364Z,17.40
2022-10-11T20:06:52.846Z,17.30
2022-10-11T20:09:23.994Z,17.30
2022-10-11T20:11:23.334Z,17.40
2022-10-11T20:13:25.919Z,17.30
2022-10-11T20:15:29.349Z,17.20
2022-10-11T20:17:50.703Z,17.20
2022-10-11T20:19:53.537Z,17.20
2022-10-11T20:21:56.120Z,17.10
2022-10-11T20:24:02.547Z,17.10
2022-10-11T20:26:06.385Z,17.10
2022-10-11T20:28:08.916Z,17.10
2022-10-11T20:30:11.629Z,17.10
2022-10-11T20:32:14.181Z,17.10
2022-10-11T20:34:16.362Z,17.10
2022-10-11T20:36:19.712Z,17.00
2022-10-11T20:38:21.602Z,17.00
2022-10-11T20:40:24.212Z,17.00
2022-10-11T20:42:29.721Z,16.90
2022-10-11T20:44:31.794Z,16.90
2022-10-11T20:46:34.593Z,16.90
2022-10-11T20:48:37.003Z,16.90
2022-10-11T20:50:38.804Z,16.80
2022-10-11T20:52:40.538Z,16.80
2022-10-11T20:54:42.236Z,16.80
2022-10-11T20:56:44.003Z,16.80
2022-10-11T20:58:46.326Z,16.80
2022-10-11T21:00:51.288Z,16.70
2022-10-11T21:02:53.268Z,16.70
2022-10-11T21:04:54.962Z,16.70
2022-10-11T21:06:56.770Z,16.70
2022-10-11T21:08:59.166Z,16.70
2022-10-11T21:11:01.479Z,16.60
2022-10-11T21:13:03.329Z,16.60
2022-10-11T21:15:05.581Z,16.60
2022-10-11T21:17:07.419Z,16.50
2022-10-11T21:19:11.454Z,16.50
2022-10-11T21:21:14.021Z,16.50
2022-10-11T21:23:16.336Z,16.50
2022-10-11T21:25:17.959Z,16.50
2022-10-11T21:27:19.623Z,16.40
2022-10-11T21:29:21.282Z,16.40
2022-10-11T21:31:23.481Z,16.40
2022-10-11T21:33:26.749Z,16.40
2022-10-11T21:35:29.232Z,16.40
2022-10-11T21:37:30.855Z,16.30
2022-10-11T21:39:32.481Z,16.30
2022-10-11T21:41:34.217Z,16.30
2022-10-11T21:43:37.973Z,16.20
2022-10-11T21:45:39.706Z,16.20
2022-10-11T21:47:43.189Z,16.30
2022-10-11T21:49:45.078Z,16.20
2022-10-11T21:51:46.760Z,16.30
2022-10-11T21:53:48.386Z,16.20
2022-10-11T21:55:55.899Z,16.20
2022-10-11T21:57:57.594Z,16.20
2022-10-11T21:59:59.240Z,16.20
2022-10-11T22:02:02.037Z,16.20
2022-10-11T22:04:04.865Z,16.20
2022-10-11T22:06:06.511Z,16.20
2022-10-11T22:08:08.162Z,16.20
2022-10-11T22:10:09.883Z,16.20
2022-10-11T22:12:11.503Z,16.20
2022-10-11T22:14:13.241Z,16.20
2022-10-11T22:16:15.213Z,16.20
2022-10-11T22:18:17.158Z,16.10
2022-10-11T22:20:18.790Z,16.20
2022-10-11T22:22:20.424Z,16.20
2022-10-11T22:24:22.248Z,16.20
2022-10-11T22:26:30.036Z,16.20
2022-10-11T22:28:31.876Z,16.20
2022-10-11T22:30:33.568Z,16.20
2022-10-11T22:32:35.456Z,16.20
2022-10-11T22:34:37.308Z,16.20
2022-10-11T22:36:38.975Z,16.20
2022-10-11T22:38:41.387Z,16.20
2022-10-11T22:40:43.016Z,16.20
2022-10-11T22:42:44.654Z,16.20
2022-10-11T22:44:46.389Z,16.20
2022-10-11T22:46:48.059Z,16.20
2022-10-11T22:48:49.674Z,16.30
2022-10-11T22:50:51.652Z,16.20
2022-10-11T22:52:53.303Z,16.20
2022-10-11T22:54:55.285Z,16.20
2022-10-11T22:56:56.933Z,16.20
2022-10-11T22:58:58.863Z,16.20
2022-10-11T23:01:07.259Z,16.20
2022-10-11T23:03:11.932Z,16.20
2022-10-11T23:05:13.637Z,16.20
2022-10-11T23:07:15.283Z,16.20
2022-10-11T23:09:16.913Z,16.20
2022-10-11T23:11:18.546Z,16.20
2022-10-11T23:13:20.431Z,16.20
2022-10-11T23:15:22.184Z,16.20
2022-10-11T23:17:23.857Z,16.10
2022-10-11T23:19:25.475Z,16.10
2022-10-11T23:21:27.247Z,16.20
2022-10-11T23:23:28.919Z,16.20
2022-10-11T23:25:30.559Z,16.20
2022-10-11T23:27:32.256Z,16.20
2022-10-11T23:29:33.922Z,16.10
2022-10-11T23:31:35.581Z,16.10
2022-10-11T23:33:37.226Z,16.10
2022-10-11T23:35:38.853Z,16.10
2022-10-11T23:37:40.795Z,16.10
2022-10-11T23:39:42.589Z,16.10
2022-10-11T23:41:44.422Z,16.10
2022-10-11T23:43:46.065Z,16.20
2022-10-11T23:45:47.698Z,16.10
2022-10-11T23:47:49.318Z,16.10
2022-10-11T23:49:51.774Z,16.10
2022-10-11T23:51:53.398Z,16.20
2022-10-11T23:53:55.056Z,16.20
2022-10-11T23:55:56.705Z,16.20
2022-10-11T23:57:58.325Z,16.20
2022-10-11T23:59:59.950Z,16.20
